Time;durP1;ratioP1;P1;durP2;ratioP2;P2;SDS_P1;SDS_P2;PMS_P1;PMS_P2;Temp;Humidity;BMP_temperature;BMP_pressure;BME280_temperature;BME280_humidity;BME280_pressure;Samples;Min_cycle;Max_cycle;Signal;HPM_P1;HPM_P2
2021/07/24 00:01:53;;;;;;;8.67;6.43;;;24.30;58.80;;;;;;4973680;28;20432;-61
2021/07/24 00:04:19;;;;;;;7.28;5.70;;;24.30;58.80;;;;;;4972775;28;20546;-61
2021/07/24 00:06:45;;;;;;;7.73;6.13;;;24.30;58.80;;;;;;4973547;28;21004;-61
2021/07/24 00:09:12;;;;;;;7.38;6.15;;;24.20;58.70;;;;;;4973475;28;20392;-61
2021/07/24 00:11:37;;;;;;;7.65;6.00;;;24.30;58.80;;;;;;4973181;28;20428;-61
2021/07/24 00:14:03;;;;;;;8.50;6.30;;;24.20;58.80;;;;;;4972944;28;20439;-61
2021/07/24 00:16:29;;;;;;;7.88;6.47;;;24.20;58.80;;;;;;4973322;28;20407;-61
2021/07/24 00:18:54;;;;;;;7.47;6.17;;;24.20;58.70;;;;;;4973275;28;20487;-61
2021/07/24 00:21:20;;;;;;;8.27;6.45;;;24.20;58.80;;;;;;4973266;28;20394;-61
2021/07/24 00:23:46;;;;;;;7.33;6.07;;;24.30;58.80;;;;;;4973194;28;20424;-61
2021/07/24 00:26:13;;;;;;;7.32;6.07;;;24.20;58.80;;;;;;4972632;28;20479;-61
2021/07/24 00:28:39;;;;;;;7.97;6.28;;;24.20;58.80;;;;;;4973175;28;20400;-61
2021/07/24 00:31:05;;;;;;;8.52;6.43;;;24.20;58.80;;;;;;4972728;28;20447;-61
2021/07/24 00:33:31;;;;;;;7.13;6.13;;;24.20;58.80;;;;;;4973150;28;20408;-61
2021/07/24 00:35:56;;;;;;;7.97;6.27;;;24.20;58.70;;;;;;4972762;28;20915;-61
2021/07/24 00:38:24;;;;;;;7.90;6.00;;;24.20;59.30;;;;;;4972574;28;20400;-61
2021/07/24 00:40:54;;;;;;;7.20;6.18;;;24.20;58.70;;;;;;4972997;28;20396;-61
2021/07/24 00:43:24;;;;;;;7.47;6.15;;;24.20;58.80;;;;;;4972981;28;20772;-61
2021/07/24 00:45:53;;;;;;;7.95;6.20;;;24.20;58.70;;;;;;4972785;28;20420;-61
2021/07/24 00:48:21;;;;;;;7.50;6.10;;;24.20;58.70;;;;;;4971416;28;20483;-61
2021/07/24 00:50:49;;;;;;;7.78;6.20;;;24.20;58.70;;;;;;4972680;28;20967;-61
2021/07/24 00:53:21;;;;;;;6.88;6.03;;;24.20;58.70;;;;;;4972915;28;20414;-61
2021/07/24 00:55:48;;;;;;;7.05;6.18;;;24.20;58.70;;;;;;4972852;28;20443;-61
2021/07/24 00:58:31;;;;;;;6.95;6.20;;;24.20;58.70;;;;;;4971866;28;20920;-61
2021/07/24 01:00:57;;;;;;;7.47;6.03;;;24.20;58.70;;;;;;4972307;28;20392;-61
2021/07/24 01:03:23;;;;;;;7.30;6.10;;;24.20;58.70;;;;;;4972548;28;20424;-61
2021/07/24 01:05:52;;;;;;;7.20;6.10;;;24.20;58.70;;;;;;4972358;28;20421;-61
2021/07/24 01:08:19;;;;;;;7.43;6.40;;;24.20;58.70;;;;;;4971811;28;20765;-61
2021/07/24 01:10:46;;;;;;;7.82;6.10;;;24.20;58.70;;;;;;4972139;28;20793;-61
2021/07/24 01:13:17;;;;;;;7.63;6.43;;;24.20;58.70;;;;;;4971336;28;20406;-61
2021/07/24 01:15:46;;;;;;;7.07;5.97;;;24.20;58.70;;;;;;4972701;28;20403;-61
2021/07/24 01:18:13;;;;;;;7.10;6.10;;;24.20;58.70;;;;;;4971979;28;20463;-61
2021/07/24 01:20:40;;;;;;;7.10;5.95;;;24.10;58.60;;;;;;4982682;28;20483;-62
2021/07/24 01:23:06;;;;;;;7.70;6.03;;;24.20;58.70;;;;;;5010380;28;20447;-61
2021/07/24 01:25:32;;;;;;;6.10;5.32;;;24.20;58.70;;;;;;5010397;28;20887;-61
2021/07/24 01:27:58;;;;;;;7.28;5.78;;;24.20;58.70;;;;;;5009709;28;20485;-61
2021/07/24 01:30:23;;;;;;;7.43;5.87;;;24.20;58.70;;;;;;5010442;28;20397;-61
2021/07/24 01:32:49;;;;;;;7.55;5.90;;;24.10;58.70;;;;;;5010652;28;20934;-61
2021/07/24 01:35:15;;;;;;;7.23;6.00;;;24.10;58.70;;;;;;5010975;28;20397;-61
2021/07/24 01:37:40;;;;;;;7.10;6.13;;;24.10;58.70;;;;;;5011373;28;20431;-61
2021/07/24 01:40:06;;;;;;;6.90;5.88;;;24.10;58.70;;;;;;5010981;28;20879;-61
2021/07/24 01:42:32;;;;;;;7.13;6.22;;;24.10;58.70;;;;;;5011329;28;20385;-61
2021/07/24 01:44:58;;;;;;;7.00;5.87;;;24.10;58.70;;;;;;5011354;28;20547;-61
2021/07/24 01:47:23;;;;;;;7.03;6.20;;;24.10;58.70;;;;;;5011419;28;20427;-61
2021/07/24 01:52:48;;;;;;;6.85;5.88;;;24.10;58.70;;;;;;5011132;28;20408;-61
2021/07/24 01:55:47;;;;;;;7.47;6.32;;;24.10;58.70;;;;;;5011329;28;20381;-61
2021/07/24 01:58:16;;;;;;;7.03;6.30;;;24.10;58.70;;;;;;5010880;28;20380;-61
2021/07/24 02:00:44;;;;;;;7.15;5.93;;;24.10;58.70;;;;;;5011250;28;20432;-61
2021/07/24 02:03:14;;;;;;;7.25;6.20;;;24.10;58.70;;;;;;5011102;28;20441;-61
2021/07/24 02:05:45;;;;;;;7.30;6.20;;;24.10;58.60;;;;;;5011224;28;20393;-61
2021/07/24 02:08:11;;;;;;;6.95;5.80;;;24.10;58.70;;;;;;5010152;28;20392;-61
2021/07/24 02:10:39;;;;;;;7.40;6.30;;;24.10;58.60;;;;;;5014867;28;20397;-61
2021/07/24 02:13:05;;;;;;;6.93;6.03;;;24.10;58.70;;;;;;5014298;28;20872;-61
2021/07/24 02:15:32;;;;;;;7.53;6.38;;;24.10;58.60;;;;;;5014148;28;20404;-61
2021/07/24 02:18:00;;;;;;;7.20;6.10;;;24.10;58.60;;;;;;5014356;28;20395;-61
2021/07/24 02:20:26;;;;;;;7.70;6.18;;;24.10;58.60;;;;;;5014136;28;20451;-61
2021/07/24 02:22:54;;;;;;;7.53;6.15;;;24.10;58.60;;;;;;5014464;28;20411;-61
2021/07/24 02:25:19;;;;;;;6.57;5.75;;;24.10;58.60;;;;;;5014304;28;20495;-61
2021/07/24 02:27:46;;;;;;;6.70;5.77;;;24.10;58.60;;;;;;5014346;28;20524;-61
2021/07/24 02:30:12;;;;;;;6.70;6.00;;;24.10;58.50;;;;;;5013974;28;20742;-61
2021/07/24 02:32:38;;;;;;;6.97;5.95;;;24.10;58.60;;;;;;5012604;28;21086;-61
2021/07/24 02:35:04;;;;;;;7.28;6.05;;;24.10;58.60;;;;;;5014099;28;20516;-61
2021/07/24 02:37:29;;;;;;;7.15;5.93;;;24.10;58.60;;;;;;5012962;28;20399;-61
2021/07/24 02:39:55;;;;;;;7.23;6.10;;;24.00;58.60;;;;;;5013980;28;20476;-61
2021/07/24 02:42:21;;;;;;;7.18;5.82;;;24.00;58.60;;;;;;5013634;28;20393;-61
2021/07/24 02:44:46;;;;;;;6.90;5.83;;;24.00;58.60;;;;;;5014196;28;20829;-61
2021/07/24 02:47:12;;;;;;;6.82;5.90;;;24.00;58.60;;;;;;5014082;28;20385;-61
2021/07/24 02:49:38;;;;;;;6.60;5.90;;;24.00;58.60;;;;;;5012678;28;20451;-61
2021/07/24 02:52:05;;;;;;;6.82;5.78;;;24.00;58.60;;;;;;5013783;28;20431;-61
2021/07/24 02:54:30;;;;;;;7.50;5.67;;;24.00;58.60;;;;;;5013741;28;20397;-61
2021/07/24 02:56:56;;;;;;;6.97;5.70;;;24.00;58.50;;;;;;5013827;28;20420;-61
2021/07/24 02:59:22;;;;;;;6.78;5.60;;;24.00;58.50;;;;;;5013792;28;20393;-61
2021/07/24 03:01:48;;;;;;;7.47;6.10;;;24.00;58.50;;;;;;5013759;28;20401;-61
2021/07/24 03:04:14;;;;;;;7.60;6.18;;;24.00;58.50;;;;;;5013176;28;20471;-61
2021/07/24 03:06:39;;;;;;;6.77;6.07;;;24.00;58.50;;;;;;5013791;28;20491;-61
2021/07/24 03:09:06;;;;;;;6.97;5.95;;;24.00;58.60;;;;;;5012304;28;20412;-61
2021/07/24 03:11:33;;;;;;;7.32;6.00;;;24.00;58.50;;;;;;5013657;28;20769;-61
2021/07/24 03:14:00;;;;;;;7.45;5.90;;;24.00;59.10;;;;;;5013292;28;20408;-61
2021/07/24 03:16:26;;;;;;;7.78;6.07;;;24.00;58.50;;;;;;5012981;28;20392;-61
2021/07/24 03:18:52;;;;;;;6.33;5.70;;;24.00;58.50;;;;;;5013366;28;20438;-61
2021/07/24 03:21:18;;;;;;;6.90;6.07;;;24.00;58.50;;;;;;5012436;28;20515;-61
2021/07/24 03:23:45;;;;;;;7.15;6.05;;;24.00;58.50;;;;;;5013258;28;20507;-61
2021/07/24 03:26:10;;;;;;;6.60;5.82;;;24.00;58.50;;;;;;5012914;28;20384;-61
2021/07/24 03:28:36;;;;;;;7.27;5.67;;;24.00;58.50;;;;;;5013272;28;20730;-61
2021/07/24 03:31:02;;;;;;;6.95;6.10;;;23.90;58.50;;;;;;5011667;28;20496;-61
2021/07/24 03:33:28;;;;;;;7.23;6.03;;;24.00;58.50;;;;;;5011905;28;20484;-61
2021/07/24 03:35:53;;;;;;;7.57;6.10;;;23.90;58.40;;;;;;5011977;28;20745;-61
2021/07/24 03:38:22;;;;;;;6.47;5.63;;;24.00;58.50;;;;;;5011987;28;20397;-61
2021/07/24 03:40:47;;;;;;;6.93;6.05;;;23.90;58.50;;;;;;5011831;28;20424;-61
2021/07/24 03:43:14;;;;;;;6.85;6.15;;;24.00;58.50;;;;;;5012643;28;20417;-61
2021/07/24 03:45:40;;;;;;;7.13;5.87;;;23.90;58.40;;;;;;5013031;28;20381;-61
2021/07/24 03:48:06;;;;;;;7.65;6.38;;;23.90;58.50;;;;;;5012933;28;20415;-61
2021/07/24 03:50:32;;;;;;;6.63;5.80;;;23.90;58.50;;;;;;5012296;28;20420;-61
2021/07/24 03:52:58;;;;;;;6.97;6.05;;;23.90;58.50;;;;;;5012682;28;20741;-61
2021/07/24 03:55:23;;;;;;;6.40;5.70;;;23.90;58.50;;;;;;5012564;28;20898;-61
2021/07/24 03:57:51;;;;;;;6.43;5.72;;;23.90;58.50;;;;;;5012742;28;20400;-61
2021/07/24 04:00:17;;;;;;;6.50;5.80;;;23.90;58.50;;;;;;5012140;28;20397;-61
2021/07/24 04:02:43;;;;;;;6.88;5.97;;;23.90;58.50;;;;;;5012360;28;20975;-61
2021/07/24 04:05:10;;;;;;;6.68;5.85;;;23.90;58.50;;;;;;5012585;28;20400;-61
2021/07/24 04:07:40;;;;;;;6.88;5.95;;;23.90;58.50;;;;;;5012398;28;20389;-61
2021/07/24 04:10:08;;;;;;;7.20;5.85;;;23.90;58.50;;;;;;5012495;28;20953;-61
2021/07/24 04:12:39;;;;;;;7.13;6.00;;;23.90;58.40;;;;;;5012282;28;20385;-61
2021/07/24 04:15:06;;;;;;;6.80;5.80;;;23.90;58.40;;;;;;5012340;28;20400;-61
2021/07/24 04:17:32;;;;;;;6.72;6.00;;;23.90;58.40;;;;;;5012441;28;20420;-61
2021/07/24 04:19:58;;;;;;;6.97;5.95;;;23.90;58.40;;;;;;5012321;28;20428;-61
2021/07/24 04:22:23;;;;;;;6.40;5.70;;;23.90;58.50;;;;;;5011830;28;20476;-61
2021/07/24 04:24:49;;;;;;;7.10;5.80;;;23.90;58.50;;;;;;5012174;28;20808;-61
2021/07/24 04:27:15;;;;;;;6.93;5.75;;;23.90;58.50;;;;;;5012100;28;20404;-61
2021/07/24 04:29:40;;;;;;;6.80;6.00;;;23.90;58.50;;;;;;5012207;28;20753;-61
2021/07/24 04:32:06;;;;;;;7.40;6.00;;;23.90;58.50;;;;;;5011679;28;20869;-61
2021/07/24 04:34:32;;;;;;;6.95;5.95;;;23.90;58.50;;;;;;5011320;28;20427;-61
2021/07/24 04:36:58;;;;;;;6.70;5.50;;;23.90;58.40;;;;;;5012099;28;20392;-61
2021/07/24 04:39:24;;;;;;;6.63;5.65;;;23.90;58.50;;;;;;5012244;28;20447;-61
2021/07/24 04:41:49;;;;;;;6.53;5.82;;;23.90;58.40;;;;;;5012048;28;20455;-61
2021/07/24 04:44:15;;;;;;;6.72;5.65;;;23.90;58.40;;;;;;5011511;28;20428;-61
2021/07/24 04:46:41;;;;;;;7.00;5.53;;;23.90;58.40;;;;;;5011344;28;20388;-61
2021/07/24 04:49:07;;;;;;;6.70;5.80;;;23.90;58.40;;;;;;5011487;28;20451;-62
2021/07/24 04:51:33;;;;;;;6.30;5.70;;;23.90;58.40;;;;;;5011520;28;20484;-61
2021/07/24 04:54:01;;;;;;;7.03;5.68;;;23.90;58.50;;;;;;5011684;28;20885;-61
2021/07/24 04:56:27;;;;;;;6.28;5.50;;;23.90;58.50;;;;;;5011273;28;20482;-61
2021/07/24 04:58:54;;;;;;;6.03;5.23;;;23.90;58.50;;;;;;5011847;28;20397;-61
2021/07/24 05:01:20;;;;;;;7.05;5.78;;;23.90;58.50;;;;;;5011827;28;20480;-61
2021/07/24 05:03:46;;;;;;;7.57;6.13;;;23.90;58.50;;;;;;5011665;28;20417;-61
2021/07/24 05:06:12;;;;;;;6.75;6.00;;;23.90;58.50;;;;;;5011021;28;20415;-61
2021/07/24 05:08:38;;;;;;;6.80;5.87;;;23.80;58.40;;;;;;5010886;28;20877;-61
2021/07/24 05:11:04;;;;;;;6.80;6.00;;;23.90;58.50;;;;;;5011529;28;20443;-61
2021/07/24 05:13:30;;;;;;;6.28;5.53;;;23.90;58.50;;;;;;5011756;28;20824;-61
2021/07/24 05:15:56;;;;;;;6.75;5.95;;;23.80;58.40;;;;;;5011377;28;20840;-61
2021/07/24 05:18:22;;;;;;;6.68;5.40;;;23.90;58.50;;;;;;5010790;28;20955;-61
2021/07/24 05:20:48;;;;;;;6.10;5.50;;;23.90;58.50;;;;;;5011621;28;20396;-61
2021/07/24 05:23:14;;;;;;;6.80;5.35;;;23.90;58.50;;;;;;5011528;28;20416;-61
2021/07/24 05:25:41;;;;;;;6.97;6.05;;;23.90;58.50;;;;;;5011622;28;20553;-61
2021/07/24 05:28:07;;;;;;;6.55;5.40;;;23.90;58.50;;;;;;5011693;28;20381;-61
2021/07/24 05:30:33;;;;;;;6.60;5.83;;;23.90;58.50;;;;;;5011095;28;20459;-60
2021/07/24 05:32:59;;;;;;;6.65;5.95;;;23.90;58.60;;;;;;5011539;28;20884;-61
2021/07/24 05:35:24;;;;;;;6.37;5.70;;;23.90;58.60;;;;;;5011004;28;20404;-61
2021/07/24 05:37:50;;;;;;;7.22;5.82;;;23.90;58.60;;;;;;5011421;28;20428;-61
2021/07/24 05:40:15;;;;;;;8.20;5.50;;;23.90;58.90;;;;;;5011024;28;20749;-62
2021/07/24 05:42:41;;;;;;;6.35;5.40;;;23.90;57.80;;;;;;5011441;28;20399;-61
2021/07/24 05:45:07;;;;;;;6.33;5.33;;;24.00;57.70;;;;;;5015141;28;20470;-62
2021/07/24 05:47:33;;;;;;;8.52;6.00;;;24.00;57.90;;;;;;5015382;28;20392;-64
2021/07/24 05:50:01;;;;;;;8.15;6.10;;;24.10;58.50;;;;;;5014998;28;20416;-61
2021/07/24 05:52:26;;;;;;;7.03;5.85;;;24.10;58.50;;;;;;5014690;28;20385;-61
2021/07/24 05:54:53;;;;;;;8.35;5.80;;;24.10;57.90;;;;;;5015042;28;20484;-61
2021/07/24 05:57:18;;;;;;;8.23;6.13;;;24.10;57.90;;;;;;5013796;28;20404;-61
2021/07/24 05:59:44;;;;;;;8.23;5.83;;;24.10;59.10;;;;;;5014902;28;20475;-61
2021/07/24 06:02:14;;;;;;;8.52;6.50;;;24.10;57.90;;;;;;5014538;28;20396;-61
2021/07/24 06:04:42;;;;;;;8.15;6.30;;;24.10;57.90;;;;;;5013693;28;20500;-61
2021/07/24 06:07:08;;;;;;;10.88;6.35;;;24.10;58.20;;;;;;5014462;28;20400;-61
2021/07/24 06:09:34;;;;;;;10.02;6.03;;;24.10;58.40;;;;;;5014685;28;20393;-61
2021/07/24 06:12:00;;;;;;;10.05;5.90;;;24.20;58.70;;;;;;5013419;28;20397;-61
2021/07/24 06:14:25;;;;;;;8.20;6.07;;;24.20;58.80;;;;;;5014008;28;20524;-61
2021/07/24 06:16:52;;;;;;;7.70;6.03;;;24.20;58.70;;;;;;5014653;28;20396;-61
2021/07/24 06:19:18;;;;;;;11.18;6.47;;;24.30;58.80;;;;;;5014354;28;20397;-61
2021/07/24 06:21:44;;;;;;;10.50;5.82;;;24.30;58.80;;;;;;4996946;28;20407;-62
2021/07/24 06:24:10;;;;;;;9.23;5.53;;;24.30;59.10;;;;;;5014503;28;20417;-62
2021/07/24 06:26:37;;;;;;;10.75;5.88;;;24.30;59.10;;;;;;5014016;28;20760;-61
2021/07/24 06:29:03;;;;;;;7.22;5.78;;;24.30;58.90;;;;;;5014440;28;20408;-61
2021/07/24 06:31:28;;;;;;;9.25;5.88;;;24.30;59.10;;;;;;5014377;28;20397;-61
2021/07/24 06:33:55;;;;;;;11.23;5.77;;;24.30;58.90;;;;;;5014333;28;20480;-61
2021/07/24 06:36:20;;;;;;;10.75;6.10;;;24.30;59.00;;;;;;5013441;28;20439;-61
2021/07/24 06:38:46;;;;;;;9.13;6.00;;;24.40;58.90;;;;;;5013950;28;20397;-61
2021/07/24 06:41:11;;;;;;;10.73;5.70;;;24.40;59.70;;;;;;5014266;28;20373;-62
2021/07/24 06:43:37;;;;;;;9.77;5.80;;;24.40;59.20;;;;;;5012781;28;20409;-61
2021/07/24 06:46:13;;;;;;;9.50;6.30;;;24.40;59.10;;;;;;5013859;28;20404;-62
2021/07/24 06:48:40;;;;;;;8.02;6.10;;;24.40;58.90;;;;;;5013606;28;20428;-62
2021/07/24 06:51:07;;;;;;;7.95;5.80;;;24.40;59.00;;;;;;5013780;28;20409;-62
2021/07/24 06:53:34;;;;;;;7.40;5.80;;;24.50;59.00;;;;;;5014005;28;20827;-63
2021/07/24 06:55:59;;;;;;;9.48;5.95;;;24.50;59.10;;;;;;5013710;28;20421;-62
2021/07/24 06:58:25;;;;;;;8.20;5.68;;;24.50;58.90;;;;;;5012145;28;20431;-62
2021/07/24 07:00:50;;;;;;;7.65;5.82;;;24.50;59.10;;;;;;4995282;28;20480;-63
2021/07/24 07:03:16;;;;;;;9.20;5.80;;;24.40;59.10;;;;;;4987044;28;20834;-62
2021/07/24 07:05:42;;;;;;;7.63;5.80;;;24.40;59.10;;;;;;4989965;28;20882;-62
2021/07/24 07:08:08;;;;;;;9.77;6.20;;;24.30;59.20;;;;;;4987784;28;20422;-64
2021/07/24 07:10:34;;;;;;;7.60;6.00;;;24.30;59.00;;;;;;4984070;28;20394;-62
2021/07/24 07:12:59;;;;;;;9.03;5.90;;;24.30;59.10;;;;;;4985175;28;20398;-67
2021/07/24 07:15:27;;;;;;;11.40;6.37;;;24.30;59.10;;;;;;4990498;28;20394;-62
2021/07/24 07:17:53;;;;;;;10.52;6.15;;;24.30;59.10;;;;;;4987874;28;20936;-62
2021/07/24 07:20:18;;;;;;;8.63;5.97;;;24.30;59.30;;;;;;4984482;28;20391;-63
2021/07/24 07:22:44;;;;;;;9.95;6.05;;;24.30;59.40;;;;;;4988707;28;20410;-67
2021/07/24 07:25:11;;;;;;;8.83;5.87;;;24.30;59.40;;;;;;4984973;28;20478;-63
2021/07/24 07:27:43;;;;;;;6.97;5.70;;;24.30;59.40;;;;;;4985461;28;20402;-69
2021/07/24 07:30:11;;;;;;;8.05;5.75;;;24.30;59.60;;;;;;4989466;28;20939;-62
2021/07/24 07:32:37;;;;;;;9.57;5.97;;;24.30;59.40;;;;;;4986373;28;20422;-64
2021/07/24 07:35:03;;;;;;;7.70;5.75;;;24.30;59.40;;;;;;4989641;28;20462;-62
2021/07/24 07:37:29;;;;;;;8.75;5.70;;;24.30;59.40;;;;;;4989079;28;20422;-63
2021/07/24 07:39:54;;;;;;;8.70;6.00;;;24.30;59.50;;;;;;4984486;28;20398;-62
2021/07/24 07:42:20;;;;;;;8.13;5.80;;;24.30;59.40;;;;;;4984503;28;20497;-62
2021/07/24 07:44:46;;;;;;;7.80;6.13;;;24.30;59.40;;;;;;4984164;28;21486;-63
2021/07/24 07:47:11;;;;;;;9.27;5.82;;;24.30;59.40;;;;;;4984594;28;21438;-62
2021/07/24 07:49:38;;;;;;;6.93;5.73;;;24.30;59.50;;;;;;4984248;28;20415;-62
2021/07/24 07:52:05;;;;;;;6.93;5.60;;;24.30;59.40;;;;;;4984479;28;20398;-63
2021/07/24 07:54:33;;;;;;;7.68;5.90;;;24.30;59.40;;;;;;4983780;28;20394;-63
2021/07/24 07:57:02;;;;;;;9.05;5.55;;;24.30;59.40;;;;;;4985463;28;21442;-64
2021/07/24 07:59:29;;;;;;;7.60;5.77;;;24.30;59.40;;;;;;4990374;28;20483;-67
2021/07/24 08:01:55;;;;;;;7.60;5.57;;;24.30;59.40;;;;;;4993068;28;20759;-63
2021/07/24 08:04:20;;;;;;;6.57;5.17;;;24.30;59.40;;;;;;4992465;28;20422;-62
2021/07/24 08:06:46;;;;;;;6.85;5.53;;;24.30;59.30;;;;;;4988400;28;20402;-63
2021/07/24 08:09:12;;;;;;;6.70;5.60;;;24.30;59.40;;;;;;4990249;28;20401;-62
2021/07/24 08:11:42;;;;;;;7.13;5.40;;;24.30;59.40;;;;;;4996142;28;20429;-63
2021/07/24 08:14:10;;;;;;;6.63;5.23;;;24.30;59.40;;;;;;5017459;28;20393;-62
2021/07/24 08:16:35;;;;;;;6.90;5.22;;;24.30;59.30;;;;;;4990397;28;20406;-63
2021/07/24 08:19:01;;;;;;;6.00;5.38;;;24.30;59.50;;;;;;4989692;28;20395;-63
2021/07/24 08:21:26;;;;;;;8.93;5.57;;;24.30;59.30;;;;;;4986689;28;20506;-62
2021/07/24 08:23:52;;;;;;;6.32;5.55;;;24.30;59.40;;;;;;4983386;28;20422;-62
2021/07/24 08:26:18;;;;;;;6.65;5.60;;;24.30;59.30;;;;;;4982420;28;20391;-63
2021/07/24 08:28:43;;;;;;;6.70;5.70;;;24.30;59.30;;;;;;4988736;28;20392;-62
2021/07/24 08:31:14;;;;;;;6.90;5.85;;;24.30;59.40;;;;;;4983546;28;20738;-62
2021/07/24 08:33:39;;;;;;;8.35;5.82;;;24.30;59.20;;;;;;4983530;28;20882;-63
2021/07/24 08:36:05;;;;;;;7.73;5.70;;;24.30;59.10;;;;;;4983358;28;20413;-62
2021/07/24 08:38:31;;;;;;;7.50;5.80;;;24.30;59.10;;;;;;4983489;28;20401;-63
2021/07/24 08:40:56;;;;;;;7.27;5.73;;;24.30;59.10;;;;;;4983500;28;20398;-62
2021/07/24 08:43:22;;;;;;;8.32;5.68;;;24.30;59.30;;;;;;4980823;28;21360;-62
2021/07/24 08:45:48;;;;;;;7.93;5.93;;;24.30;59.10;;;;;;4990831;28;20863;-62
2021/07/24 08:48:14;;;;;;;6.88;6.18;;;24.30;59.10;;;;;;4982123;28;20905;-62
2021/07/24 08:50:43;;;;;;;8.80;6.00;;;24.30;59.10;;;;;;4982254;28;20518;-62
2021/07/24 08:53:09;;;;;;;6.95;5.70;;;24.30;59.00;;;;;;4983564;28;20421;-63
2021/07/24 08:55:39;;;;;;;7.88;5.70;;;24.30;59.10;;;;;;4983476;28;21203;-62
2021/07/24 08:58:09;;;;;;;7.68;5.68;;;24.30;59.00;;;;;;4983826;28;20473;-62
2021/07/24 09:00:35;;;;;;;6.22;5.60;;;24.30;59.00;;;;;;4987651;28;20453;-62
2021/07/24 09:03:02;;;;;;;6.97;5.88;;;24.30;59.00;;;;;;4983081;28;21062;-62
2021/07/24 09:05:30;;;;;;;7.05;5.80;;;24.30;59.00;;;;;;4983416;28;20382;-62
2021/07/24 09:07:59;;;;;;;7.68;5.95;;;24.30;59.00;;;;;;4983298;28;20394;-64
2021/07/24 09:10:25;;;;;;;7.35;5.50;;;24.30;58.90;;;;;;4985656;28;20399;-62
2021/07/24 09:12:58;;;;;;;6.63;5.53;;;24.30;58.90;;;;;;4982990;28;20421;-62
2021/07/24 09:15:24;;;;;;;7.75;6.25;;;24.30;58.90;;;;;;4983171;28;20889;-62
2021/07/24 09:17:50;;;;;;;7.28;6.20;;;24.30;58.90;;;;;;4984558;28;20424;-62
2021/07/24 09:20:21;;;;;;;7.70;5.78;;;24.30;58.90;;;;;;4986075;28;20778;-62
2021/07/24 09:22:47;;;;;;;7.72;5.78;;;24.30;59.00;;;;;;4986778;28;20406;-64
2021/07/24 09:25:16;;;;;;;6.30;5.43;;;24.30;59.00;;;;;;4985443;28;20414;-62
2021/07/24 09:27:47;;;;;;;6.38;5.68;;;24.30;59.00;;;;;;4985644;28;20457;-63
2021/07/24 09:30:31;;;;;;;6.57;5.55;;;24.30;59.00;;;;;;4986900;28;21384;-62
2021/07/24 09:33:10;;;;;;;7.13;6.00;;;24.30;59.10;;;;;;4987167;28;20438;-63
2021/07/24 09:35:37;;;;;;;6.72;5.57;;;24.30;59.00;;;;;;4988210;28;20845;-63
2021/07/24 09:38:05;;;;;;;6.63;5.57;;;24.30;59.00;;;;;;4986342;28;20961;-62
2021/07/24 09:40:33;;;;;;;7.63;6.25;;;24.30;59.10;;;;;;4984212;28;20460;-63
2021/07/24 09:43:00;;;;;;;6.47;5.77;;;24.30;59.00;;;;;;4989953;28;20422;-63
2021/07/24 09:45:25;;;;;;;6.85;6.15;;;24.30;59.00;;;;;;4987869;28;20467;-62
2021/07/24 09:47:55;;;;;;;7.40;5.95;;;24.30;59.10;;;;;;4991048;28;21308;-63
2021/07/24 09:50:21;;;;;;;6.55;5.75;;;24.30;59.00;;;;;;4995582;28;20529;-62
2021/07/24 09:52:52;;;;;;;6.50;5.72;;;24.30;59.00;;;;;;4986115;28;20881;-62
2021/07/24 09:55:23;;;;;;;6.50;5.70;;;24.30;59.10;;;;;;4990189;28;20853;-62
2021/07/24 09:57:51;;;;;;;6.57;5.85;;;24.30;59.10;;;;;;4989265;28;20406;-62
2021/07/24 10:00:25;;;;;;;7.32;5.75;;;24.30;59.20;;;;;;4990858;28;20433;-61
2021/07/24 10:03:01;;;;;;;8.23;6.23;;;24.30;59.70;;;;;;4985640;28;20398;-61
2021/07/24 10:05:35;;;;;;;7.68;6.25;;;24.30;59.80;;;;;;4988473;28;20413;-61
2021/07/24 10:08:08;;;;;;;8.90;6.60;;;24.30;59.70;;;;;;4986165;28;20453;-62
2021/07/24 10:10:36;;;;;;;7.80;6.22;;;24.40;62.20;;;;;;4985533;28;20407;-61
2021/07/24 10:13:07;;;;;;;9.27;6.88;;;24.40;60.40;;;;;;4986035;28;20755;-61
2021/07/24 10:15:39;;;;;;;8.77;6.50;;;24.40;62.50;;;;;;4984920;28;21116;-61
2021/07/24 10:18:06;;;;;;;8.27;6.33;;;24.40;62.10;;;;;;4986173;28;20409;-61
2021/07/24 10:20:44;;;;;;;9.32;6.60;;;24.50;61.70;;;;;;4984910;28;20413;-61
2021/07/24 10:23:11;;;;;;;8.45;6.55;;;24.40;61.20;;;;;;4985663;28;20418;-62
2021/07/24 10:26:03;;;;;;;10.15;6.93;;;24.50;60.60;;;;;;4985946;28;20402;-62
2021/07/24 10:28:53;;;;;;;8.13;6.40;;;24.40;61.20;;;;;;4985226;28;20898;-67
2021/07/24 10:32:05;;;;;;;10.02;6.72;;;24.40;61.00;;;;;;4991812;28;20421;-62
2021/07/24 10:34:33;;;;;;;8.60;6.60;;;24.50;60.70;;;;;;4989323;28;20447;-62
2021/07/24 10:36:59;;;;;;;9.88;6.80;;;24.50;60.70;;;;;;4985571;28;20759;-62
2021/07/24 10:39:25;;;;;;;9.68;7.00;;;24.50;60.60;;;;;;4985494;28;20404;-66
2021/07/24 10:42:07;;;;;;;10.83;7.43;;;24.40;61.00;;;;;;4987417;28;20390;-63
2021/07/24 10:44:37;;;;;;;12.00;7.67;;;24.50;61.70;;;;;;4984985;28;20498;-62
2021/07/24 10:47:03;;;;;;;11.07;7.68;;;24.60;62.70;;;;;;4985034;28;20413;-61
2021/07/24 10:49:37;;;;;;;12.73;7.95;;;24.70;63.20;;;;;;4984756;28;20749;-61
2021/07/24 10:52:09;;;;;;;10.23;7.68;;;24.70;63.40;;;;;;4985199;28;20416;-61
2021/07/24 10:55:03;;;;;;;11.00;7.88;;;24.70;62.70;;;;;;4984510;28;20394;-61
2021/07/24 10:57:49;;;;;;;9.82;7.90;;;24.70;62.50;;;;;;4985154;28;20822;-62
2021/07/24 11:00:21;;;;;;;9.68;7.10;;;24.70;61.90;;;;;;4983838;28;20446;-62
2021/07/24 11:02:49;;;;;;;9.73;8.00;;;24.70;61.70;;;;;;4983358;28;20815;-62
2021/07/24 11:05:30;;;;;;;11.03;8.00;;;24.70;61.70;;;;;;4985355;28;20513;-61
2021/07/24 11:07:57;;;;;;;9.07;7.47;;;24.60;61.40;;;;;;4991273;28;20399;-61
2021/07/24 11:10:24;;;;;;;9.85;7.78;;;24.60;61.40;;;;;;4985101;28;20390;-61
2021/07/24 11:12:50;;;;;;;8.80;7.30;;;24.60;61.20;;;;;;4984316;28;20387;-61
2021/07/24 11:15:40;;;;;;;10.10;7.47;;;24.60;61.10;;;;;;4986262;28;20409;-61
2021/07/24 11:18:25;;;;;;;8.77;7.15;;;24.60;61.20;;;;;;4984940;28;20747;-62
2021/07/24 11:20:52;;;;;;;10.15;7.50;;;24.60;61.00;;;;;;4983941;28;20410;-61
2021/07/24 11:23:18;;;;;;;8.60;6.93;;;24.70;60.80;;;;;;4984459;28;20897;-61
2021/07/24 11:25:48;;;;;;;9.65;7.00;;;24.60;60.70;;;;;;4984814;28;20485;-61
2021/07/24 11:28:22;;;;;;;8.57;7.10;;;24.70;60.50;;;;;;4984710;28;20402;-63
2021/07/24 11:30:58;;;;;;;9.03;6.77;;;24.60;60.30;;;;;;4983537;28;20885;-61
2021/07/24 11:33:29;;;;;;;9.43;7.00;;;24.60;60.30;;;;;;4985716;28;20973;-61
2021/07/24 11:36:09;;;;;;;7.95;6.95;;;24.60;60.40;;;;;;4986456;28;20402;-61
2021/07/24 11:38:37;;;;;;;8.40;7.22;;;24.70;60.50;;;;;;4983923;28;20386;-61
2021/07/24 11:41:08;;;;;;;7.45;6.65;;;24.70;60.40;;;;;;4983851;28;20411;-61
2021/07/24 11:43:35;;;;;;;7.97;7.00;;;24.70;60.30;;;;;;4987661;28;20402;-61
2021/07/24 11:46:07;;;;;;;8.23;7.15;;;24.70;60.30;;;;;;4984510;28;20496;-61
2021/07/24 11:48:34;;;;;;;8.82;7.15;;;24.70;60.30;;;;;;4984443;28;20386;-61
2021/07/24 11:51:06;;;;;;;9.63;7.00;;;24.80;60.30;;;;;;4983958;28;20421;-61
2021/07/24 11:53:33;;;;;;;9.50;7.60;;;24.70;60.20;;;;;;4984214;28;20811;-62
2021/07/24 11:56:00;;;;;;;8.63;7.07;;;24.70;60.30;;;;;;4984253;28;20420;-61
2021/07/24 11:58:26;;;;;;;9.43;7.30;;;24.70;60.30;;;;;;4983798;28;21064;-62
2021/07/24 12:00:55;;;;;;;10.32;6.88;;;24.70;60.50;;;;;;4984177;28;20557;-62
2021/07/24 12:03:30;;;;;;;10.10;7.55;;;24.70;60.60;;;;;;4982698;28;20756;-62
2021/07/24 12:06:02;;;;;;;11.05;7.38;;;24.80;61.20;;;;;;4984215;28;20394;-61
2021/07/24 12:08:30;;;;;;;9.77;7.38;;;24.80;61.50;;;;;;4984143;28;20397;-62
2021/07/24 12:10:57;;;;;;;9.50;7.40;;;24.80;61.60;;;;;;4982091;28;21072;-61
2021/07/24 12:13:25;;;;;;;10.25;7.50;;;24.80;62.70;;;;;;4983823;28;21029;-62
2021/07/24 12:16:01;;;;;;;13.27;8.05;;;25.10;61.10;;;;;;4988972;28;20399;-62
2021/07/24 12:18:34;;;;;;;10.40;7.68;;;25.00;64.60;;;;;;4983403;28;20400;-62
2021/07/24 12:21:19;;;;;;;11.13;7.22;;;25.00;63.60;;;;;;4983453;28;20406;-62
2021/07/24 12:23:58;;;;;;;11.02;7.80;;;25.00;62.70;;;;;;4983437;28;20422;-62
2021/07/24 12:26:31;;;;;;;12.38;7.68;;;25.00;62.80;;;;;;4983984;28;20477;-61
2021/07/24 12:28:58;;;;;;;10.15;7.60;;;25.00;62.70;;;;;;4988674;28;20409;-61
2021/07/24 12:31:30;;;;;;;10.32;7.55;;;25.00;62.70;;;;;;4983421;28;20477;-62
2021/07/24 12:33:58;;;;;;;10.20;7.22;;;25.00;62.30;;;;;;4986431;28;20406;-62
2021/07/24 12:36:25;;;;;;;11.15;7.45;;;25.00;62.00;;;;;;4986453;28;20422;-61
2021/07/24 12:38:55;;;;;;;9.60;7.07;;;24.90;61.80;;;;;;4983531;28;20487;-61
2021/07/24 12:41:34;;;;;;;9.55;7.03;;;25.00;62.00;;;;;;4983531;28;20395;-61
2021/07/24 12:44:08;;;;;;;10.52;7.50;;;24.90;61.90;;;;;;4983466;28;20430;-61
2021/07/24 12:46:35;;;;;;;9.75;7.40;;;24.90;61.40;;;;;;4990306;28;20405;-62
2021/07/24 12:49:02;;;;;;;10.15;7.32;;;24.90;61.40;;;;;;4983072;28;20782;-62
2021/07/24 12:51:40;;;;;;;9.37;7.23;;;24.90;61.50;;;;;;4983007;28;20456;-61
2021/07/24 12:54:16;;;;;;;8.07;6.97;;;25.00;61.20;;;;;;4982815;28;20803;-61